Time;durP1;ratioP1;P1;durP2;ratioP2;P2;SDS_P1;SDS_P2;PMS_P1;PMS_P2;Temp;Humidity;BMP_temperature;BMP_pressure;BME280_temperature;BME280_humidity;BME280_pressure;Samples;Min_cycle;Max_cycle;Signal;HPM_P1;HPM_P2
2021/12/09 00:01:16;;;;;;;;;;;;;;;;;;4894157;29;1107;-59
2021/12/09 00:03:41;;;;;;;;;;;;;;;;;;4907526;29;1181;-60
2021/12/09 00:06:09;;;;;;;;;;;;;;;;;;4908466;28;826;-61
2021/12/09 00:08:37;;;;;;;;;;;;;;;;;;4893419;28;1574;-59
2021/12/09 00:11:03;;;;;;;;;;;;;;;;;;4894037;28;857;-59
2021/12/09 00:13:29;;;;;;;;;;;;;;;;;;4893110;28;1419;-59
2021/12/09 00:15:55;;;;;;;;;;;;;;;;;;4893971;28;1016;-59
2021/12/09 00:18:21;;;;;;;;;;;;;;;;;;4893871;28;1824;-59
2021/12/09 00:20:46;;;;;;;;;;;;;;;;;;4894175;29;1984;-60
2021/12/09 00:23:12;;;;;;;;;;;;;;;;;;4893592;28;1055;-60
2021/12/09 00:25:38;;;;;;;;;;;;;;;;;;4893624;29;904;-59
2021/12/09 00:28:03;;;;;;;;;;;;;;;;;;4893780;28;991;-59
2021/12/09 00:30:30;;;;;;;;;;;;;;;;;;4893404;29;1015;-59
2021/12/09 00:32:56;;;;;;;;;;;;;;;;;;4894337;29;936;-59
2021/12/09 00:35:27;;;;;;;;;;;;;;;;;;4892121;29;2332;-59
2021/12/09 00:37:58;;;;;;;;;;;;;;;;;;4894301;28;842;-59
2021/12/09 00:40:23;;;;;;;;;;;;;;;;;;4893284;28;1958;-59
2021/12/09 00:42:49;;;;;;;;;;;;;;;;;;4893841;29;885;-59
2021/12/09 00:45:14;;;;;;;;;;;;;;;;;;4893584;29;817;-59
2021/12/09 00:47:40;;;;;;;;;;;;;;;;;;4893435;28;775;-59
2021/12/09 00:50:06;;;;;;;;;;;;;;;;;;4893264;28;918;-59
2021/12/09 00:52:31;;;;;;;;;;;;;;;;;;4892501;29;881;-59
2021/12/09 00:54:57;;;;;;;;;;;;;;;;;;4893592;29;948;-60
2021/12/09 00:57:22;;;;;;;;;;;;;;;;;;4892850;28;775;-60
2021/12/09 00:59:48;;;;;;;;;;;;;;;;;;4893362;29;1963;-59
2021/12/09 01:02:14;;;;;;;;;;;;;;;;;;4893011;28;819;-59
2021/12/09 01:04:40;;;;;;;;;;;;;;;;;;4892823;29;938;-59
2021/12/09 01:07:05;;;;;;;;;;;;;;;;;;4893259;28;803;-59
2021/12/09 01:09:31;;;;;;;;;;;;;;;;;;4892708;29;925;-59
2021/12/09 01:11:56;;;;;;;;;;;;;;;;;;4893091;29;1297;-59
2021/12/09 01:14:21;;;;;;;;;;;;;;;;;;4892685;28;909;-59
2021/12/09 01:16:47;;;;;;;;;;;;;;;;;;4893272;28;1113;-59
2021/12/09 01:19:12;;;;;;;;;;;;;;;;;;4893340;28;1923;-59
2021/12/09 01:21:37;;;;;;;;;;;;;;;;;;4893176;28;1041;-59
2021/12/09 01:24:03;;;;;;;;;;;;;;;;;;4895872;28;904;-59
2021/12/09 01:26:29;;;;;;;;;;;;;;;;;;4895688;28;909;-59
2021/12/09 01:29:00;;;;;;;;;;;;;;;;;;4895979;28;912;-59
2021/12/09 01:31:30;;;;;;;;;;;;;;;;;;4896017;28;858;-59
2021/12/09 01:34:01;;;;;;;;;;;;;;;;;;4895769;29;936;-59
2021/12/09 01:36:26;;;;;;;;;;;;;;;;;;4895154;28;915;-59
2021/12/09 01:38:52;;;;;;;;;;;;;;;;;;4896064;28;1976;-59
2021/12/09 01:41:17;;;;;;;;;;;;;;;;;;4895891;29;984;-59
2021/12/09 01:43:43;;;;;;;;;;;;;;;;;;4910216;28;901;-59
2021/12/09 01:46:09;;;;;;;;;;;;;;;;;;4895547;29;1008;-59
2021/12/09 01:48:35;;;;;;;;;;;;;;;;;;4895765;28;897;-59
2021/12/09 01:51:00;;;;;;;;;;;;;;;;;;4895727;28;858;-59
2021/12/09 01:53:26;;;;;;;;;;;;;;;;;;4893320;28;1051;-59
2021/12/09 01:55:52;;;;;;;;;;;;;;;;;;4895535;29;933;-59
2021/12/09 01:58:17;;;;;;;;;;;;;;;;;;4895545;28;817;-59
2021/12/09 02:00:42;;;;;;;;;;;;;;;;;;4895058;29;1907;-59
2021/12/09 02:03:07;;;;;;;;;;;;;;;;;;4895062;29;1008;-59
2021/12/09 02:05:33;;;;;;;;;;;;;;;;;;4895099;29;835;-59
2021/12/09 02:07:59;;;;;;;;;;;;;;;;;;4895458;29;882;-59
2021/12/09 02:10:24;;;;;;;;;;;;;;;;;;4894593;28;909;-59
2021/12/09 02:12:51;;;;;;;;;;;;;;;;;;4894857;28;1021;-59
2021/12/09 02:15:18;;;;;;;;;;;;;;;;;;4895008;28;1215;-59
2021/12/09 02:17:43;;;;;;;;;;;;;;;;;;4895102;28;1516;-59
2021/12/09 02:20:09;;;;;;;;;;;;;;;;;;4894647;29;1923;-59
2021/12/09 02:22:35;;;;;;;;;;;;;;;;;;4894650;28;903;-59
2021/12/09 02:25:00;;;;;;;;;;;;;;;;;;4894960;29;850;-59
2021/12/09 02:27:25;;;;;;;;;;;;;;;;;;4894830;28;913;-59
2021/12/09 02:29:51;;;;;;;;;;;;;;;;;;4895084;29;846;-60
2021/12/09 02:32:17;;;;;;;;;;;;;;;;;;4895111;28;846;-60
2021/12/09 02:34:42;;;;;;;;;;;;;;;;;;4908860;28;940;-60
2021/12/09 02:37:10;;;;;;;;;;;;;;;;;;4895372;28;881;-59
2021/12/09 02:39:35;;;;;;;;;;;;;;;;;;4894591;28;1899;-59
2021/12/09 02:42:01;;;;;;;;;;;;;;;;;;4895032;28;862;-60
2021/12/09 02:44:27;;;;;;;;;;;;;;;;;;4894382;29;854;-60
2021/12/09 02:46:53;;;;;;;;;;;;;;;;;;4895221;28;821;-60
2021/12/09 02:49:20;;;;;;;;;;;;;;;;;;4895168;28;791;-59
2021/12/09 02:51:46;;;;;;;;;;;;;;;;;;4894876;28;929;-59
2021/12/09 02:54:12;;;;;;;;;;;;;;;;;;4895227;28;866;-59
2021/12/09 02:56:38;;;;;;;;;;;;;;;;;;4894446;28;798;-59
2021/12/09 02:59:05;;;;;;;;;;;;;;;;;;4895396;29;1902;-59
2021/12/09 03:01:34;;;;;;;;;;;;;;;;;;4894883;28;848;-60
2021/12/09 03:04:01;;;;;;;;;;;;;;;;;;4895488;29;869;-59
2021/12/09 03:06:33;;;;;;;;;;;;;;;;;;4895119;28;1185;-60
2021/12/09 03:09:02;;;;;;;;;;;;;;;;;;4894707;28;917;-60
2021/12/09 03:11:27;;;;;;;;;;;;;;;;;;4894469;28;1183;-60
2021/12/09 03:13:52;;;;;;;;;;;;;;;;;;4894841;28;877;-60
2021/12/09 03:16:22;;;;;;;;;;;;;;;;;;4894762;28;1283;-61
2021/12/09 03:18:48;;;;;;;;;;;;;;;;;;4895027;28;1887;-60
2021/12/09 03:21:17;;;;;;;;;;;;;;;;;;4895270;28;889;-59
2021/12/09 03:23:43;;;;;;;;;;;;;;;;;;4894443;28;1020;-60
2021/12/09 03:26:09;;;;;;;;;;;;;;;;;;4894372;28;961;-59
2021/12/09 03:28:34;;;;;;;;;;;;;;;;;;4894212;28;938;-59
2021/12/09 03:30:59;;;;;;;;;;;;;;;;;;4894296;28;882;-60
2021/12/09 03:33:24;;;;;;;;;;;;;;;;;;4908858;28;948;-60
2021/12/09 03:36:00;;;;;;;;;;;;;;;;;;4892538;28;948;-59
2021/12/09 03:38:26;;;;;;;;;;;;;;;;;;4894194;28;827;-59
2021/12/09 03:40:51;;;;;;;;;;;;;;;;;;4892198;28;1985;-60
2021/12/09 03:43:16;;;;;;;;;;;;;;;;;;4894282;29;1040;-59
2021/12/09 03:45:42;;;;;;;;;;;;;;;;;;4892823;28;861;-59
2021/12/09 03:48:07;;;;;;;;;;;;;;;;;;4892561;29;880;-59
2021/12/09 03:50:33;;;;;;;;;;;;;;;;;;4893982;29;1574;-59
2021/12/09 03:52:58;;;;;;;;;;;;;;;;;;4908809;28;901;-59
2021/12/09 03:55:23;;;;;;;;;;;;;;;;;;4893958;28;1011;-59
2021/12/09 03:57:48;;;;;;;;;;;;;;;;;;4907605;28;1263;-59
2021/12/09 04:00:14;;;;;;;;;;;;;;;;;;4894336;29;1903;-59
2021/12/09 04:02:39;;;;;;;;;;;;;;;;;;4891934;28;885;-59
2021/12/09 04:05:06;;;;;;;;;;;;;;;;;;4894164;28;862;-59
2021/12/09 04:07:32;;;;;;;;;;;;;;;;;;4893750;28;880;-59
2021/12/09 04:09:57;;;;;;;;;;;;;;;;;;4892365;29;1340;-59
2021/12/09 04:12:22;;;;;;;;;;;;;;;;;;4893749;28;1230;-60
2021/12/09 04:14:49;;;;;;;;;;;;;;;;;;4893549;28;1098;-59
2021/12/09 04:17:14;;;;;;;;;;;;;;;;;;4893872;28;825;-60
2021/12/09 04:19:46;;;;;;;;;;;;;;;;;;4893120;29;1970;-60
2021/12/09 04:22:12;;;;;;;;;;;;;;;;;;4893641;28;865;-59
2021/12/09 04:24:37;;;;;;;;;;;;;;;;;;4893114;28;857;-59
2021/12/09 04:27:02;;;;;;;;;;;;;;;;;;4893539;28;870;-59
2021/12/09 04:29:28;;;;;;;;;;;;;;;;;;4893169;28;811;-59
2021/12/09 04:31:53;;;;;;;;;;;;;;;;;;4893035;28;1061;-59
2021/12/09 04:34:18;;;;;;;;;;;;;;;;;;4893284;28;862;-59
2021/12/09 04:36:44;;;;;;;;;;;;;;;;;;4892814;29;817;-59
2021/12/09 04:39:09;;;;;;;;;;;;;;;;;;4893075;28;1970;-59
2021/12/09 04:41:35;;;;;;;;;;;;;;;;;;4893079;28;838;-59
2021/12/09 04:44:00;;;;;;;;;;;;;;;;;;4893259;28;913;-59
2021/12/09 04:46:26;;;;;;;;;;;;;;;;;;4893406;29;976;-59
2021/12/09 04:48:51;;;;;;;;;;;;;;;;;;4892735;28;1126;-59
2021/12/09 04:51:16;;;;;;;;;;;;;;;;;;4893592;28;914;-59
2021/12/09 04:53:42;;;;;;;;;;;;;;;;;;4892940;28;882;-59
2021/12/09 04:56:07;;;;;;;;;;;;;;;;;;4894365;28;988;-59
2021/12/09 04:58:33;;;;;;;;;;;;;;;;;;4896466;28;819;-59
2021/12/09 05:00:59;;;;;;;;;;;;;;;;;;4897188;29;1903;-59
2021/12/09 05:03:24;;;;;;;;;;;;;;;;;;4897084;28;830;-59
2021/12/09 05:05:51;;;;;;;;;;;;;;;;;;4896578;28;815;-59
2021/12/09 05:08:18;;;;;;;;;;;;;;;;;;4895454;28;1615;-59
2021/12/09 05:13:20;;;;;;;;;;;;;;;;;;4896621;28;1290;-59
2021/12/09 05:15:45;;;;;;;;;;;;;;;;;;4896606;28;865;-59
2021/12/09 05:18:11;;;;;;;;;;;;;;;;;;4896917;28;847;-59
2021/12/09 05:20:36;;;;;;;;;;;;;;;;;;4896307;28;1985;-59
2021/12/09 05:23:02;;;;;;;;;;;;;;;;;;4896204;28;925;-59
2021/12/09 05:25:27;;;;;;;;;;;;;;;;;;4896639;28;1044;-59
2021/12/09 05:27:53;;;;;;;;;;;;;;;;;;4895798;28;923;-59
2021/12/09 05:30:24;;;;;;;;;;;;;;;;;;4896279;28;842;-59
2021/12/09 05:32:49;;;;;;;;;;;;;;;;;;4895530;28;861;-59
2021/12/09 05:35:15;;;;;;;;;;;;;;;;;;4910853;28;917;-60
2021/12/09 05:37:40;;;;;;;;;;;;;;;;;;4895505;28;948;-60
2021/12/09 05:40:06;;;;;;;;;;;;;;;;;;4895116;28;1915;-59
2021/12/09 05:42:31;;;;;;;;;;;;;;;;;;4896182;28;833;-59
2021/12/09 05:44:57;;;;;;;;;;;;;;;;;;4895687;28;882;-59
2021/12/09 05:47:22;;;;;;;;;;;;;;;;;;4910161;28;830;-59
2021/12/09 05:49:48;;;;;;;;;;;;;;;;;;4895545;28;908;-59
2021/12/09 05:52:14;;;;;;;;;;;;;;;;;;4895733;28;995;-60
2021/12/09 05:54:40;;;;;;;;;;;;;;;;;;4895353;28;885;-59
2021/12/09 05:57:05;;;;;;;;;;;;;;;;;;4895691;28;930;-59
2021/12/09 05:59:31;;;;;;;;;;;;;;;;;;4893992;28;1980;-59
2021/12/09 06:01:57;;;;;;;;;;;;;;;;;;4895042;28;980;-59
2021/12/09 06:04:22;;;;;;;;;;;;;;;;;;4909831;28;862;-59
2021/12/09 06:06:48;;;;;;;;;;;;;;;;;;4895315;28;869;-59
2021/12/09 06:09:13;;;;;;;;;;;;;;;;;;4894748;28;920;-59
2021/12/09 06:11:40;;;;;;;;;;;;;;;;;;4893413;28;1415;-59
2021/12/09 06:14:07;;;;;;;;;;;;;;;;;;4910461;29;1146;-59
2021/12/09 06:16:33;;;;;;;;;;;;;;;;;;4895200;28;1107;-59
2021/12/09 06:18:59;;;;;;;;;;;;;;;;;;4893395;28;1910;-59
2021/12/09 06:21:27;;;;;;;;;;;;;;;;;;4909643;28;897;-59
2021/12/09 06:23:53;;;;;;;;;;;;;;;;;;4894767;28;857;-59
2021/12/09 06:26:19;;;;;;;;;;;;;;;;;;4895016;28;830;-60
2021/12/09 06:28:45;;;;;;;;;;;;;;;;;;4894952;28;909;-59
2021/12/09 06:31:10;;;;;;;;;;;;;;;;;;4894601;28;866;-59
2021/12/09 06:33:35;;;;;;;;;;;;;;;;;;4895133;28;814;-59
2021/12/09 06:36:00;;;;;;;;;;;;;;;;;;4894577;28;827;-60
2021/12/09 06:38:26;;;;;;;;;;;;;;;;;;4895150;28;948;-59
2021/12/09 06:40:52;;;;;;;;;;;;;;;;;;4894955;28;1907;-59
2021/12/09 06:43:17;;;;;;;;;;;;;;;;;;4895530;28;919;-59
2021/12/09 06:45:43;;;;;;;;;;;;;;;;;;4895011;28;980;-59
2021/12/09 06:48:09;;;;;;;;;;;;;;;;;;4895089;28;871;-59
2021/12/09 06:50:35;;;;;;;;;;;;;;;;;;4895122;28;902;-59
2021/12/09 06:53:00;;;;;;;;;;;;;;;;;;4895253;29;771;-59
2021/12/09 06:55:25;;;;;;;;;;;;;;;;;;4894918;28;1008;-59
2021/12/09 06:57:51;;;;;;;;;;;;;;;;;;4895028;28;838;-59
2021/12/09 07:00:19;;;;;;;;;;;;;;;;;;4894605;28;1911;-59
2021/12/09 07:02:44;;;;;;;;;;;;;;;;;;4895204;28;767;-59
2021/12/09 07:05:10;;;;;;;;;;;;;;;;;;4894707;28;832;-59
2021/12/09 07:07:35;;;;;;;;;;;;;;;;;;4894743;28;811;-59
2021/12/09 07:10:00;;;;;;;;;;;;;;;;;;4894756;28;831;-59
2021/12/09 07:12:26;;;;;;;;;;;;;;;;;;4908663;28;1310;-59
2021/12/09 07:14:51;;;;;;;;;;;;;;;;;;4894090;28;949;-59
2021/12/09 07:17:17;;;;;;;;;;;;;;;;;;4894416;28;901;-59
2021/12/09 07:19:43;;;;;;;;;;;;;;;;;;4893306;28;1915;-59
2021/12/09 07:22:08;;;;;;;;;;;;;;;;;;4894196;28;858;-59
2021/12/09 07:24:34;;;;;;;;;;;;;;;;;;4892546;28;732;-59
2021/12/09 07:26:59;;;;;;;;;;;;;;;;;;4907849;28;968;-59
2021/12/09 07:29:25;;;;;;;;;;;;;;;;;;4892502;28;1485;-59
2021/12/09 07:31:50;;;;;;;;;;;;;;;;;;4893909;28;917;-59
2021/12/09 07:34:16;;;;;;;;;;;;;;;;;;4893912;29;841;-59
2021/12/09 07:36:42;;;;;;;;;;;;;;;;;;4893526;29;795;-59
2021/12/09 07:39:07;;;;;;;;;;;;;;;;;;4893599;28;1996;-59
2021/12/09 07:41:32;;;;;;;;;;;;;;;;;;4893664;28;865;-59
2021/12/09 07:44:01;;;;;;;;;;;;;;;;;;4893443;28;993;-59
2021/12/09 07:46:27;;;;;;;;;;;;;;;;;;4907714;28;866;-59
2021/12/09 07:48:52;;;;;;;;;;;;;;;;;;4893316;28;944;-60
2021/12/09 07:51:17;;;;;;;;;;;;;;;;;;4891855;28;905;-59
2021/12/09 07:53:42;;;;;;;;;;;;;;;;;;4892646;28;853;-59
2021/12/09 07:56:08;;;;;;;;;;;;;;;;;;4893389;28;953;-59
2021/12/09 07:58:35;;;;;;;;;;;;;;;;;;4907861;28;842;-59
2021/12/09 08:01:00;;;;;;;;;;;;;;;;;;4893464;28;1981;-59
2021/12/09 08:03:25;;;;;;;;;;;;;;;;;;4893380;29;960;-59
2021/12/09 08:05:50;;;;;;;;;;;;;;;;;;4893329;28;893;-59
2021/12/09 08:08:16;;;;;;;;;;;;;;;;;;4893212;28;846;-59
2021/12/09 08:10:41;;;;;;;;;;;;;;;;;;4893387;28;830;-59
2021/12/09 08:13:08;;;;;;;;;;;;;;;;;;4892576;29;1384;-59
2021/12/09 08:15:35;;;;;;;;;;;;;;;;;;4907723;28;838;-59
2021/12/09 08:18:04;;;;;;;;;;;;;;;;;;4907842;28;858;-59
2021/12/09 08:20:30;;;;;;;;;;;;;;;;;;4892090;28;1915;-60
2021/12/09 08:22:56;;;;;;;;;;;;;;;;;;4893900;28;830;-60
2021/12/09 08:25:22;;;;;;;;;;;;;;;;;;4894121;28;881;-60
2021/12/09 08:27:47;;;;;;;;;;;;;;;;;;4893661;28;834;-60
2021/12/09 08:30:14;;;;;;;;;;;;;;;;;;4893162;28;893;-59
2021/12/09 08:32:39;;;;;;;;;;;;;;;;;;4893634;28;1169;-60
2021/12/09 08:35:05;;;;;;;;;;;;;;;;;;4893816;28;802;-60
2021/12/09 08:37:30;;;;;;;;;;;;;;;;;;4893482;28;968;-60
2021/12/09 08:39:56;;;;;;;;;;;;;;;;;;4893553;28;1883;-60
2021/12/09 08:42:21;;;;;;;;;;;;;;;;;;4891881;28;656;-60
2021/12/09 08:44:46;;;;;;;;;;;;;;;;;;4893575;28;806;-60
2021/12/09 08:47:12;;;;;;;;;;;;;;;;;;4893240;28;909;-60
2021/12/09 08:49:37;;;;;;;;;;;;;;;;;;4893102;28;893;-60
2021/12/09 08:52:03;;;;;;;;;;;;;;;;;;4893436;28;925;-60
2021/12/09 08:54:29;;;;;;;;;;;;;;;;;;4893359;28;889;-60
2021/12/09 08:56:54;;;;;;;;;;;;;;;;;;4897134;28;1279;-60
2021/12/09 08:59:21;;;;;;;;;;;;;;;;;;4911374;29;1969;-60
2021/12/09 09:01:46;;;;;;;;;;;;;;;;;;4911775;29;938;-60
2021/12/09 09:04:11;;;;;;;;;;;;;;;;;;4910376;29;909;-60
2021/12/09 09:06:37;;;;;;;;;;;;;;;;;;4926404;29;984;-60
2021/12/09 09:09:04;;;;;;;;;;;;;;;;;;4911671;29;858;-60
2021/12/09 09:11:29;;;;;;;;;;;;;;;;;;4911608;29;818;-60
2021/12/09 09:13:54;;;;;;;;;;;;;;;;;;4911407;29;1111;-60
2021/12/09 09:16:20;;;;;;;;;;;;;;;;;;4912532;28;960;-60
2021/12/09 09:18:45;;;;;;;;;;;;;;;;;;4911631;29;853;-60
2021/12/09 09:21:10;;;;;;;;;;;;;;;;;;4911809;29;1911;-59
2021/12/09 09:23:36;;;;;;;;;;;;;;;;;;4911709;29;868;-59
2021/12/09 09:26:02;;;;;;;;;;;;;;;;;;4911474;29;857;-59
2021/12/09 09:28:27;;;;;;;;;;;;;;;;;;4911185;29;909;-59
2021/12/09 09:30:57;;;;;;;;;;;;;;;;;;4910403;29;857;-59
2021/12/09 09:33:27;;;;;;;;;;;;;;;;;;4911066;29;892;-59
2021/12/09 09:35:53;;;;;;;;;;;;;;;;;;4911420;29;834;-59
2021/12/09 09:38:19;;;;;;;;;;;;;;;;;;4911359;29;830;-59
2021/12/09 09:40:49;;;;;;;;;;;;;;;;;;4910991;29;1907;-59
2021/12/09 09:44:12;;;;;;;;;;;;;;;;;;4912845;29;881;-59
2021/12/09 09:46:03;;;;;;;;;;;;;;;;;;4939856;28;1481;-59
2021/12/09 09:48:29;;;;;;;;;;;;;;;;;;4914342;29;870;-59
2021/12/09 09:50:55;;;;;;;;;;;;;;;;;;4914350;29;881;-59
2021/12/09 09:53:20;;;;;;;;;;;;;;;;;;4913994;29;919;-59
2021/12/09 09:55:47;;;;;;;;;;;;;;;;;;4914037;29;996;-59
2021/12/09 09:58:13;;;;;;;;;;;;;;;;;;4914140;29;910;-59
2021/12/09 10:00:38;;;;;;;;;;;;;;;;;;4928172;29;1902;-59
2021/12/09 10:03:06;;;;;;;;;;;;;;;;;;4912945;29;830;-59
2021/12/09 10:05:36;;;;;;;;;;;;;;;;;;4913764;29;939;-59
2021/12/09 10:08:02;;;;;;;;;;;;;;;;;;4914267;29;940;-59
2021/12/09 10:10:28;;;;;;;;;;;;;;;;;;4913861;29;946;-59
2021/12/09 10:13:04;;;;;;;;;;;;;;;;;;4913574;29;1242;-59
2021/12/09 10:15:44;;;;;;;;;;;;;;;;;;4914034;29;881;-59
2021/12/09 10:18:10;;;;;;;;;;;;;;;;;;4914201;29;1125;-59
2021/12/09 10:20:43;;;;;;;;;;;;;;;;;;4913957;29;1911;-59
2021/12/09 10:23:26;;;;;;;;;;;;;;;;;;4914532;29;858;-59
2021/12/09 10:26:10;;;;;;;;;;;;;;;;;;4914428;29;842;-59
2021/12/09 10:28:36;;;;;;;;;;;;;;;;;;4914219;29;1293;-61
2021/12/09 10:31:10;;;;;;;;;;;;;;;;;;4914445;29;814;-59
2021/12/09 10:33:58;;;;;;;;;;;;;;;;;;4914173;29;880;-59
2021/12/09 10:36:42;;;;;;;;;;;;;;;;;;4914613;29;821;-59
2021/12/09 10:39:19;;;;;;;;;;;;;;;;;;4914267;29;1971;-59
2021/12/09 10:41:44;;;;;;;;;;;;;;;;;;4913726;29;838;-59
2021/12/09 10:44:10;;;;;;;;;;;;;;;;;;4913914;29;922;-59
2021/12/09 10:47:06;;;;;;;;;;;;;;;;;;4928513;29;919;-59
2021/12/09 10:49:39;;;;;;;;;;;;;;;;;;4913244;29;933;-59
2021/12/09 10:52:20;;;;;;;;;;;;;;;;;;4913536;29;881;-59
2021/12/09 10:54:45;;;;;;;;;;;;;;;;;;4911734;29;896;-59
2021/12/09 10:57:24;;;;;;;;;;;;;;;;;;4913637;29;869;-59
2021/12/09 10:59:49;;;;;;;;;;;;;;;;;;4913059;29;1911;-59
2021/12/09 11:02:15;;;;;;;;;;;;;;;;;;4913829;29;617;-59
2021/12/09 11:04:40;;;;;;;;;;;;;;;;;;4911850;28;874;-60
2021/12/09 11:07:28;;;;;;;;;;;;;;;;;;4914073;29;881;-59
2021/12/09 11:10:12;;;;;;;;;;;;;;;;;;4913449;29;884;-60
2021/12/09 11:12:37;;;;;;;;;;;;;;;;;;4912736;29;1315;-59
2021/12/09 11:15:03;;;;;;;;;;;;;;;;;;4912967;29;928;-59
2021/12/09 11:17:33;;;;;;;;;;;;;;;;;;4911060;29;1232;-60
2021/12/09 11:19:59;;;;;;;;;;;;;;;;;;4912933;29;1911;-60
2021/12/09 11:22:29;;;;;;;;;;;;;;;;;;4912771;29;841;-60
2021/12/09 11:24:59;;;;;;;;;;;;;;;;;;4912919;29;826;-59
2021/12/09 11:27:26;;;;;;;;;;;;;;;;;;4912891;29;836;-60
2021/12/09 11:29:56;;;;;;;;;;;;;;;;;;4911148;29;1305;-59
2021/12/09 11:32:49;;;;;;;;;;;;;;;;;;4911178;29;1200;-59
2021/12/09 11:35:19;;;;;;;;;;;;;;;;;;4912684;29;1814;-59
2021/12/09 11:37:48;;;;;;;;;;;;;;;;;;4912417;29;851;-59
2021/12/09 11:40:37;;;;;;;;;;;;;;;;;;4911319;29;1957;-59
2021/12/09 11:43:04;;;;;;;;;;;;;;;;;;4926161;29;1103;-59
2021/12/09 11:45:32;;;;;;;;;;;;;;;;;;4912639;29;873;-59
2021/12/09 11:47:58;;;;;;;;;;;;;;;;;;4912268;29;921;-59
2021/12/09 11:50:25;;;;;;;;;;;;;;;;;;4912633;29;834;-59
2021/12/09 11:52:52;;;;;;;;;;;;;;;;;;4912027;28;1127;-59
2021/12/09 11:55:21;;;;;;;;;;;;;;;;;;4912693;29;896;-60
2021/12/09 11:57:55;;;;;;;;;;;;;;;;;;4912088;29;925;-59
2021/12/09 12:11:47;;;;;;;;;;;;;;;;;;4912776;29;768;-59
2021/12/09 12:14:35;;;;;;;;;;;;;;;;;;4912328;29;1119;-60
2021/12/09 12:17:29;;;;;;;;;;;;;;;;;;4912312;29;798;-60
2021/12/09 12:20:00;;;;;;;;;;;;;;;;;;4912184;28;1916;-60
2021/12/09 12:34:49;;;;;;;;;;;;;;;;;;4912311;29;880;-60
2021/12/09 12:37:06;;;;;;;;;;;;;;;;;;4921887;28;1367;-60
2021/12/09 12:42:34;;;;;;;;;;;;;;;;;;4912516;29;754;-60
2021/12/09 12:45:06;;;;;;;;;;;;;;;;;;4911399;29;1768;-60
2021/12/09 12:47:40;;;;;;;;;;;;;;;;;;4911667;29;946;-60
2021/12/09 12:50:12;;;;;;;;;;;;;;;;;;4911671;29;877;-60
2021/12/09 12:52:39;;;;;;;;;;;;;;;;;;4911530;29;908;-60
2021/12/09 12:55:11;;;;;;;;;;;;;;;;;;4911740;29;899;-60
2021/12/09 12:57:43;;;;;;;;;;;;;;;;;;4911590;29;839;-60
2021/12/09 13:00:25;;;;;;;;;;;;;;;;;;4911746;29;1902;-60
2021/12/09 13:13:30;;;;;;;;;;;;;;;;;;4911507;29;1643;-60
2021/12/09 13:16:12;;;;;;;;;;;;;;;;;;4911307;29;853;-60
2021/12/09 13:18:41;;;;;;;;;;;;;;;;;;4913156;29;1178;-60
2021/12/09 13:21:26;;;;;;;;;;;;;;;;;;4914225;29;1923;-60
2021/12/09 13:24:10;;;;;;;;;;;;;;;;;;4903037;29;1134;-60
2021/12/09 13:26:55;;;;;;;;;;;;;;;;;;4915355;29;877;-60
2021/12/09 13:29:33;;;;;;;;;;;;;;;;;;4914957;29;1224;-60
2021/12/09 13:32:15;;;;;;;;;;;;;;;;;;4914386;29;858;-60
2021/12/09 13:34:52;;;;;;;;;;;;;;;;;;4914240;29;972;-60
2021/12/09 13:40:20;;;;;;;;;;;;;;;;;;4914544;29;1895;-60
2021/12/09 13:45:57;;;;;;;;;;;;;;;;;;4915007;29;660;-60
2021/12/09 13:48:41;;;;;;;;;;;;;;;;;;4914783;29;884;-60
2021/12/09 13:51:20;;;;;;;;;;;;;;;;;;4914797;29;940;-60
2021/12/09 13:56:30;;;;;;;;;;;;;;;;;;4914460;29;1126;-60
2021/12/09 13:58:55;;;;;;;;;;;;;;;;;;4914039;29;861;-60
2021/12/09 14:01:20;;;;;;;;;;;;;;;;;;4914798;29;1902;-60
2021/12/09 14:03:45;;;;;;;;;;;;;;;;;;4914066;29;881;-60
2021/12/09 14:06:13;;;;;;;;;;;;;;;;;;4914259;29;1039;-60
2021/12/09 14:08:42;;;;;;;;;;;;;;;;;;4914188;29;779;-60
2021/12/09 14:11:08;;;;;;;;;;;;;;;;;;4914400;29;881;-60
2021/12/09 14:13:36;;;;;;;;;;;;;;;;;;4914007;29;1102;-60
2021/12/09 14:16:13;;;;;;;;;;;;;;;;;;4912381;29;1189;-60
2021/12/09 14:21:19;;;;;;;;;;;;;;;;;;4927337;29;1903;-60
2021/12/09 14:23:45;;;;;;;;;;;;;;;;;;4914316;29;800;-60
2021/12/09 14:26:10;;;;;;;;;;;;;;;;;;4912478;29;831;-60
2021/12/09 14:28:35;;;;;;;;;;;;;;;;;;4913587;29;901;-60
2021/12/09 14:31:01;;;;;;;;;;;;;;;;;;4913454;29;827;-60
2021/12/09 14:33:27;;;;;;;;;;;;;;;;;;4913761;29;981;-60
2021/12/09 14:36:04;;;;;;;;;;;;;;;;;;4913516;29;985;-60
2021/12/09 14:38:31;;;;;;;;;;;;;;;;;;4927641;29;812;-60
2021/12/09 14:41:01;;;;;;;;;;;;;;;;;;4913260;29;1937;-60
2021/12/09 14:43:27;;;;;;;;;;;;;;;;;;4911786;29;834;-60
2021/12/09 14:45:57;;;;;;;;;;;;;;;;;;4910232;29;1273;-60
2021/12/09 14:48:33;;;;;;;;;;;;;;;;;;4912186;29;788;-60
2021/12/09 14:51:11;;;;;;;;;;;;;;;;;;4911159;29;1469;-60
2021/12/09 14:53:38;;;;;;;;;;;;;;;;;;4911826;29;854;-60
2021/12/09 14:56:04;;;;;;;;;;;;;;;;;;4911669;29;911;-60
2021/12/09 14:58:33;;;;;;;;;;;;;;;;;;4912922;29;861;-60
2021/12/09 15:01:01;;;;;;;;;;;;;;;;;;4913181;29;1903;-60
2021/12/09 15:03:35;;;;;;;;;;;;;;;;;;4913648;29;821;-60
2021/12/09 15:06:01;;;;;;;;;;;;;;;;;;4912632;29;935;-60
2021/12/09 15:08:27;;;;;;;;;;;;;;;;;;4911867;29;1196;-60
2021/12/09 15:11:00;;;;;;;;;;;;;;;;;;4912816;29;949;-60
2021/12/09 15:13:26;;;;;;;;;;;;;;;;;;4913039;29;1288;-60
2021/12/09 15:16:05;;;;;;;;;;;;;;;;;;4912922;29;897;-60
2021/12/09 15:18:31;;;;;;;;;;;;;;;;;;4913495;29;1008;-60
2021/12/09 15:21:07;;;;;;;;;;;;;;;;;;4911195;29;1911;-61
2021/12/09 15:23:42;;;;;;;;;;;;;;;;;;4913496;29;802;-61
2021/12/09 15:26:12;;;;;;;;;;;;;;;;;;4912531;29;920;-60
2021/12/09 15:28:38;;;;;;;;;;;;;;;;;;4913051;29;929;-60
2021/12/09 15:31:04;;;;;;;;;;;;;;;;;;4912207;29;1000;-61
2021/12/09 15:33:35;;;;;;;;;;;;;;;;;;4912520;29;1016;-60
2021/12/09 15:36:03;;;;;;;;;;;;;;;;;;4912313;29;915;-60
2021/12/09 15:38:28;;;;;;;;;;;;;;;;;;4913237;29;984;-61
2021/12/09 15:40:54;;;;;;;;;;;;;;;;;;4911484;29;1903;-61
2021/12/09 15:43:20;;;;;;;;;;;;;;;;;;4912966;29;995;-60
2021/12/09 15:45:53;;;;;;;;;;;;;;;;;;4912970;29;1048;-60
2021/12/09 15:48:19;;;;;;;;;;;;;;;;;;4913246;29;1621;-61
2021/12/09 15:50:52;;;;;;;;;;;;;;;;;;4913233;29;921;-60
2021/12/09 15:53:18;;;;;;;;;;;;;;;;;;4913188;29;1162;-60
2021/12/09 15:55:47;;;;;;;;;;;;;;;;;;4906259;28;1248;-60
2021/12/09 15:58:13;;;;;;;;;;;;;;;;;;4912779;29;829;-60
2021/12/09 16:00:38;;;;;;;;;;;;;;;;;;4913207;29;1907;-61
2021/12/09 16:03:05;;;;;;;;;;;;;;;;;;4912734;29;953;-61
2021/12/09 16:05:31;;;;;;;;;;;;;;;;;;4912559;29;819;-61
2021/12/09 16:07:57;;;;;;;;;;;;;;;;;;4912536;29;798;-61
2021/12/09 16:10:23;;;;;;;;;;;;;;;;;;4912677;29;944;-61
2021/12/09 16:12:48;;;;;;;;;;;;;;;;;;4912423;29;846;-61
2021/12/09 16:15:14;;;;;;;;;;;;;;;;;;4927416;29;1316;-61
2021/12/09 16:17:43;;;;;;;;;;;;;;;;;;4912291;29;822;-61
2021/12/09 16:20:11;;;;;;;;;;;;;;;;;;4911996;29;2061;-61
2021/12/09 16:22:36;;;;;;;;;;;;;;;;;;4912635;29;1053;-60
2021/12/09 16:25:07;;;;;;;;;;;;;;;;;;4911774;29;1193;-61
2021/12/09 16:27:34;;;;;;;;;;;;;;;;;;4912575;29;806;-61
2021/12/09 16:30:00;;;;;;;;;;;;;;;;;;4911581;29;1137;-60
2021/12/09 16:32:25;;;;;;;;;;;;;;;;;;4912166;29;945;-61
2021/12/09 16:34:52;;;;;;;;;;;;;;;;;;4911726;29;858;-61
2021/12/09 16:37:17;;;;;;;;;;;;;;;;;;4911877;29;948;-61
2021/12/09 16:39:43;;;;;;;;;;;;;;;;;;4912667;29;1906;-61
2021/12/09 16:42:09;;;;;;;;;;;;;;;;;;4926538;29;899;-61
2021/12/09 16:44:34;;;;;;;;;;;;;;;;;;4912066;29;971;-61
2021/12/09 16:47:00;;;;;;;;;;;;;;;;;;4911672;29;983;-61
2021/12/09 16:49:25;;;;;;;;;;;;;;;;;;4911981;29;845;-61
2021/12/09 16:51:52;;;;;;;;;;;;;;;;;;4912779;28;858;-61
2021/12/09 16:54:23;;;;;;;;;;;;;;;;;;4915738;29;1004;-61
2021/12/09 16:57:51;;;;;;;;;;;;;;;;;;4915173;29;880;-61
2021/12/09 16:59:43;;;;;;;;;;;;;;;;;;4943289;28;1899;-61
2021/12/09 17:02:10;;;;;;;;;;;;;;;;;;4914935;29;846;-61
2021/12/09 17:04:36;;;;;;;;;;;;;;;;;;4915441;29;829;-60
2021/12/09 17:07:02;;;;;;;;;;;;;;;;;;4915043;29;1075;-61
2021/12/09 17:09:28;;;;;;;;;;;;;;;;;;4914986;29;830;-61
2021/12/09 17:11:54;;;;;;;;;;;;;;;;;;4914528;29;813;-61
2021/12/09 17:14:20;;;;;;;;;;;;;;;;;;4915019;29;1097;-61
2021/12/09 17:16:46;;;;;;;;;;;;;;;;;;4915206;29;1166;-61
2021/12/09 17:19:12;;;;;;;;;;;;;;;;;;4915353;29;956;-61
2021/12/09 17:21:38;;;;;;;;;;;;;;;;;;4915132;29;825;-61
2021/12/09 17:24:06;;;;;;;;;;;;;;;;;;4914687;29;889;-61
2021/12/09 17:26:32;;;;;;;;;;;;;;;;;;4915172;29;915;-61
2021/12/09 17:28:57;;;;;;;;;;;;;;;;;;4914960;29;896;-61
2021/12/09 17:31:35;;;;;;;;;;;;;;;;;;4915287;29;815;-61
2021/12/09 17:34:01;;;;;;;;;;;;;;;;;;4914518;29;936;-61
2021/12/09 17:36:26;;;;;;;;;;;;;;;;;;4915067;29;913;-61
2021/12/09 17:38:51;;;;;;;;;;;;;;;;;;4914653;29;933;-61
2021/12/09 17:41:16;;;;;;;;;;;;;;;;;;4914764;29;1961;-61
2021/12/09 17:43:42;;;;;;;;;;;;;;;;;;4914738;29;826;-61
2021/12/09 17:46:07;;;;;;;;;;;;;;;;;;4914313;29;917;-61
2021/12/09 17:48:33;;;;;;;;;;;;;;;;;;4914640;29;890;-61
2021/12/09 17:51:00;;;;;;;;;;;;;;;;;;4914090;29;912;-61
2021/12/09 17:53:25;;;;;;;;;;;;;;;;;;4914623;29;874;-61
2021/12/09 17:55:50;;;;;;;;;;;;;;;;;;4914310;29;915;-61
2021/12/09 17:58:16;;;;;;;;;;;;;;;;;;4914718;29;825;-61
2021/12/09 18:00:42;;;;;;;;;;;;;;;;;;4914269;29;1907;-61
2021/12/09 18:03:08;;;;;;;;;;;;;;;;;;4913037;29;846;-61
2021/12/09 18:05:33;;;;;;;;;;;;;;;;;;4914092;29;965;-61
2021/12/09 18:08:00;;;;;;;;;;;;;;;;;;4913802;29;834;-61
2021/12/09 18:10:26;;;;;;;;;;;;;;;;;;4914185;29;818;-61